createdAt,value
2023-06-14T00:00:19.777Z,101229.94
2023-06-14T00:02:48.285Z,101236.38
2023-06-14T00:05:16.582Z,101236.38
2023-06-14T00:07:44.956Z,101232.97
2023-06-14T00:10:14.403Z,101231.97
2023-06-14T00:12:43.009Z,101231.38
2023-06-14T00:15:11.696Z,101223.06
2023-06-14T00:17:41.611Z,101226.13
2023-06-14T00:20:11.124Z,101222.16
2023-06-14T00:22:39.963Z,101223.84
2023-06-14T00:25:23.942Z,101230.25
2023-06-14T00:27:57.871Z,101223.00
2023-06-14T00:30:26.431Z,101222.03
2023-06-14T00:32:56.540Z,101223.84
2023-06-14T00:35:27.366Z,101229.09
2023-06-14T00:37:56.003Z,101229.69
2023-06-14T00:40:24.438Z,101224.06
2023-06-14T00:42:52.659Z,101221.56
2023-06-14T00:45:21.156Z,101209.41
2023-06-14T00:47:50.174Z,101224.16
2023-06-14T00:50:20.069Z,101229.06
2023-06-14T00:52:48.850Z,101231.84
2023-06-14T00:55:17.604Z,101228.16
2023-06-14T00:57:46.707Z,101231.28
2023-06-14T01:00:16.562Z,101232.06
2023-06-14T01:02:45.314Z,101241.84
2023-06-14T01:05:13.784Z,101237.22
2023-06-14T01:07:57.380Z,101241.19
2023-06-14T01:10:37.392Z,101241.94
2023-06-14T01:13:12.946Z,101242.91
2023-06-14T01:15:43.039Z,101239.56
2023-06-14T01:18:18.957Z,101241.19
2023-06-14T01:20:50.678Z,101242.84
2023-06-14T01:23:21.811Z,101239.72
2023-06-14T01:25:54.001Z,101232.47
2023-06-14T01:28:23.721Z,101230.69
2023-06-14T01:30:54.634Z,101234.88
2023-06-14T01:33:24.828Z,101235.22
2023-06-14T01:35:54.310Z,101240.00
2023-06-14T01:38:25.537Z,101234.91
2023-06-14T01:40:56.457Z,101234.53
2023-06-14T01:43:29.573Z,101243.81
2023-06-14T01:46:00.381Z,101236.44
2023-06-14T01:48:29.588Z,101235.06
2023-06-14T01:50:57.831Z,101234.03
2023-06-14T01:53:27.429Z,101238.19
2023-06-14T01:55:56.166Z,101231.06
2023-06-14T01:58:25.234Z,101224.38
2023-06-14T02:00:56.474Z,101236.44
2023-06-14T02:03:26.278Z,101234.47
2023-06-14T02:05:55.543Z,101232.00
2023-06-14T02:08:24.657Z,101232.50
2023-06-14T02:10:54.685Z,101232.00
2023-06-14T02:13:23.848Z,101236.13
2023-06-14T02:15:55.711Z,101231.66
2023-06-14T02:18:25.345Z,101235.31
2023-06-14T02:20:53.910Z,101235.06
2023-06-14T02:23:22.196Z,101234.72
2023-06-14T02:25:50.507Z,101235.91
2023-06-14T02:28:20.200Z,101237.81
2023-06-14T02:30:48.449Z,101233.28
2023-06-14T02:33:16.729Z,101231.13
2023-06-14T02:35:45.060Z,101235.78
2023-06-14T02:38:13.310Z,101238.84
2023-06-14T02:40:43.635Z,101234.03
2023-06-14T02:43:11.973Z,101232.25
2023-06-14T02:45:42.647Z,101229.75
2023-06-14T02:48:11.192Z,101236.53
2023-06-14T02:50:39.498Z,101229.59
2023-06-14T02:53:08.366Z,101236.34
2023-06-14T02:55:41.249Z,101238.44
2023-06-14T02:58:09.946Z,101239.97
2023-06-14T03:00:39.727Z,101247.25
2023-06-14T03:03:15.436Z,101232.84
2023-06-14T03:05:51.001Z,101238.41
2023-06-14T03:08:28.261Z,101230.59
2023-06-14T03:10:58.922Z,101235.91
2023-06-14T03:13:28.469Z,101231.34
2023-06-14T03:15:57.434Z,101229.38
2023-06-14T03:18:28.338Z,101231.59
2023-06-14T03:20:59.286Z,101235.03
2023-06-14T03:23:29.417Z,101237.38
2023-06-14T03:25:58.145Z,101237.34
2023-06-14T03:28:26.962Z,101245.50
2023-06-14T03:30:57.055Z,101241.22
2023-06-14T03:33:27.495Z,101237.66
2023-06-14T03:35:57.405Z,101247.94
2023-06-14T03:38:26.213Z,101240.81
2023-06-14T03:40:54.474Z,101249.41
2023-06-14T03:43:22.984Z,101248.56
2023-06-14T03:45:52.008Z,101247.47
2023-06-14T03:48:21.476Z,101248.47
2023-06-14T03:50:51.632Z,101249.34
2023-06-14T03:53:21.641Z,101254.03
2023-06-14T03:55:56.844Z,101242.59
2023-06-14T03:58:29.154Z,101247.53
2023-06-14T04:00:58.010Z,101251.31
2023-06-14T04:03:30.714Z,101251.06
2023-06-14T04:06:01.783Z,101256.03
2023-06-14T04:08:30.197Z,101260.94
2023-06-14T04:11:00.457Z,101260.75
2023-06-14T04:13:28.729Z,101259.50
2023-06-14T04:15:58.059Z,101265.53
2023-06-14T04:18:31.446Z,101256.97
2023-06-14T04:21:01.581Z,101260.19
2023-06-14T04:23:31.323Z,101275.34
2023-06-14T04:26:03.492Z,101275.59
2023-06-14T04:28:32.033Z,101271.31
2023-06-14T04:31:03.134Z,101276.16
2023-06-14T04:33:33.766Z,101269.69
2023-06-14T04:36:03.642Z,101270.63
2023-06-14T04:38:35.811Z,101271.03
2023-06-14T04:41:04.058Z,101272.75
2023-06-14T04:43:39.382Z,101273.22
2023-06-14T04:46:12.000Z,101272.34
2023-06-14T04:48:41.981Z,101275.13
2023-06-14T04:51:14.388Z,101273.88
2023-06-14T04:53:42.648Z,101267.22
2023-06-14T04:56:11.099Z,101271.97
2023-06-14T04:58:39.529Z,101271.50
2023-06-14T05:01:10.611Z,101277.19
2023-06-14T05:03:39.019Z,101272.38
2023-06-14T05:06:07.733Z,101270.84
2023-06-14T05:08:37.742Z,101271.44
2023-06-14T05:11:06.420Z,101271.41
2023-06-14T05:13:35.666Z,101270.84
2023-06-14T05:16:04.671Z,101273.88
2023-06-14T05:18:35.166Z,101279.75
2023-06-14T05:21:04.926Z,101278.63
2023-06-14T05:23:33.241Z,101278.25
2023-06-14T05:26:04.009Z,101274.88
2023-06-14T05:28:32.845Z,101280.34
2023-06-14T05:31:01.079Z,101280.38
2023-06-14T05:33:29.483Z,101285.31
2023-06-14T05:35:58.039Z,101284.69
2023-06-14T05:38:26.528Z,101283.16
2023-06-14T05:40:55.285Z,101298.75
2023-06-14T05:43:24.877Z,101295.13
2023-06-14T05:45:53.140Z,101290.72
2023-06-14T05:48:21.545Z,101293.88
2023-06-14T05:50:49.921Z,101288.97
2023-06-14T05:53:18.176Z,101287.56
2023-06-14T05:55:46.781Z,101294.50
2023-06-14T05:58:15.377Z,101288.28
2023-06-14T06:00:45.001Z,101284.81
2023-06-14T06:03:14.268Z,101292.84
2023-06-14T06:05:42.641Z,101282.06
2023-06-14T06:08:10.909Z,101284.94
2023-06-14T06:10:39.156Z,101284.16
2023-06-14T06:13:08.618Z,101284.16
2023-06-14T06:15:38.179Z,101280.13
2023-06-14T06:18:07.830Z,101279.25
2023-06-14T06:20:37.486Z,101280.50
2023-06-14T06:23:05.804Z,101269.22
2023-06-14T06:25:34.095Z,101278.72
2023-06-14T06:28:02.442Z,101282.16
2023-06-14T06:30:30.821Z,101286.09
2023-06-14T06:33:00.426Z,101281.56
2023-06-14T06:35:31.097Z,101289.47
2023-06-14T06:37:59.308Z,101288.94
2023-06-14T06:40:27.574Z,101292.34
2023-06-14T06:42:56.000Z,101299.28
2023-06-14T06:45:25.687Z,101300.53
2023-06-14T06:47:54.206Z,101305.75
2023-06-14T06:50:24.221Z,101305.19
2023-06-14T06:52:54.049Z,101300.63
2023-06-14T06:55:22.596Z,101306.88
2023-06-14T06:57:53.585Z,101303.75
2023-06-14T07:00:22.240Z,101299.59
2023-06-14T07:02:50.621Z,101318.53
2023-06-14T07:05:19.214Z,101313.75
2023-06-14T07:07:47.646Z,101310.34
2023-06-14T07:10:17.672Z,101326.19
2023-06-14T07:12:46.089Z,101326.66
2023-06-14T07:15:14.973Z,101325.13
2023-06-14T07:17:43.710Z,101334.19
2023-06-14T07:20:14.952Z,101330.94
2023-06-14T07:22:44.154Z,101326.13
2023-06-14T07:25:15.478Z,101335.72
2023-06-14T07:27:45.962Z,101331.06
2023-06-14T07:30:15.028Z,101330.56
2023-06-14T07:32:44.340Z,101331.69
2023-06-14T07:35:12.699Z,101341.25
2023-06-14T07:37:40.958Z,101341.06
2023-06-14T07:40:11.463Z,101339.00
2023-06-14T07:42:39.782Z,101339.50
2023-06-14T07:45:10.555Z,101337.53
2023-06-14T07:47:39.215Z,101337.84
2023-06-14T07:50:08.239Z,101340.34
2023-06-14T07:52:38.601Z,101336.09
2023-06-14T07:55:07.708Z,101338.47
2023-06-14T07:57:36.380Z,101340.13
2023-06-14T08:00:07.276Z,101344.72
2023-06-14T08:02:41.746Z,101343.03
2023-06-14T08:05:11.642Z,101334.72
2023-06-14T08:07:40.172Z,101341.72
2023-06-14T08:10:09.683Z,101342.75
2023-06-14T08:12:39.096Z,101341.84
2023-06-14T08:15:14.364Z,101353.84
2023-06-14T08:17:46.874Z,101340.13
2023-06-14T08:20:18.000Z,101340.00
2023-06-14T08:22:47.755Z,101340.72
2023-06-14T08:25:16.261Z,101340.03
2023-06-14T08:27:44.867Z,101344.56
2023-06-14T08:30:14.302Z,101347.94
2023-06-14T08:32:42.690Z,101341.09
2023-06-14T08:35:13.757Z,101344.88
2023-06-14T08:37:42.899Z,101344.13
2023-06-14T08:40:21.589Z,101344.16
2023-06-14T08:42:53.856Z,101350.25
2023-06-14T08:45:26.127Z,101361.75
2023-06-14T08:47:58.864Z,101350.94
2023-06-14T08:50:31.830Z,101351.19
2023-06-14T08:53:04.242Z,101349.75
2023-06-14T08:55:36.919Z,101354.41
2023-06-14T08:58:06.840Z,101352.69
2023-06-14T09:00:35.695Z,101356.91
2023-06-14T09:03:04.831Z,101371.00
2023-06-14T09:05:35.864Z,101368.88
2023-06-14T09:08:06.646Z,101372.81
2023-06-14T09:10:36.484Z,101370.19
2023-06-14T09:13:05.485Z,101370.97
2023-06-14T09:15:33.933Z,101379.41
2023-06-14T09:18:04.403Z,101375.88
2023-06-14T09:20:34.452Z,101368.16
2023-06-14T09:23:03.101Z,101369.66
2023-06-14T09:25:38.564Z,101365.41
2023-06-14T09:28:09.524Z,101368.28
2023-06-14T09:30:39.174Z,101367.16
2023-06-14T09:33:07.757Z,101367.50
2023-06-14T09:35:37.873Z,101373.63
2023-06-14T09:38:07.912Z,101382.19
2023-06-14T09:40:40.349Z,101382.69
2023-06-14T09:43:10.980Z,101382.09
2023-06-14T09:45:41.909Z,101380.03
2023-06-14T09:48:10.693Z,101379.88
2023-06-14T09:50:41.592Z,101370.50
2023-06-14T09:53:13.203Z,101372.09
2023-06-14T09:55:43.911Z,101382.53
2023-06-14T09:58:13.234Z,101373.53
2023-06-14T10:00:42.524Z,101371.69
2023-06-14T10:03:15.815Z,101377.50
2023-06-14T10:05:47.850Z,101371.94
2023-06-14T10:08:18.398Z,101374.84
2023-06-14T10:10:46.943Z,101375.34
2023-06-14T10:13:16.229Z,101375.91
2023-06-14T10:16:00.007Z,101373.78
2023-06-14T10:18:35.818Z,101362.44
2023-06-14T10:21:15.282Z,101357.66
2023-06-14T10:23:45.260Z,101346.88
2023-06-14T10:26:22.400Z,101348.47
2023-06-14T10:29:02.338Z,101343.56
2023-06-14T10:31:44.468Z,101336.63
2023-06-14T10:34:13.412Z,101346.25
2023-06-14T10:36:44.748Z,101337.75
2023-06-14T10:39:18.138Z,101345.66
2023-06-14T10:41:54.515Z,101334.78
2023-06-14T10:44:45.637Z,101327.59
2023-06-14T10:47:25.366Z,101328.81
2023-06-14T10:49:56.134Z,101324.72
2023-06-14T10:52:30.425Z,101328.78
2023-06-14T10:55:12.502Z,101332.47
2023-06-14T11:00:17.562Z,101311.97
2023-06-14T11:03:14.616Z,101306.47
2023-06-14T11:05:53.269Z,101312.44
2023-06-14T11:08:46.887Z,101289.50
2023-06-14T11:11:15.684Z,101310.28
2023-06-14T11:13:50.560Z,101307.72
2023-06-14T11:16:21.060Z,101296.69
2023-06-14T11:18:50.615Z,101291.97
2023-06-14T11:21:19.500Z,101279.78
2023-06-14T11:23:54.337Z,101276.41
2023-06-14T11:26:30.113Z,101272.97
2023-06-14T11:28:59.597Z,101282.44
2023-06-14T11:31:28.778Z,101271.69
2023-06-14T11:33:58.599Z,101262.13
2023-06-14T11:36:30.961Z,101273.13
2023-06-14T11:39:07.106Z,101275.75
2023-06-14T11:41:38.435Z,101274.81
2023-06-14T11:44:07.522Z,101275.41
2023-06-14T11:46:36.320Z,101269.22
2023-06-14T11:49:05.856Z,101269.84
2023-06-14T11:51:34.813Z,101273.34
2023-06-14T11:54:05.585Z,101278.72
2023-06-14T11:56:34.363Z,101266.72
2023-06-14T11:59:06.914Z,101264.47
2023-06-14T12:01:39.535Z,101240.06
2023-06-14T12:04:08.469Z,101256.09
2023-06-14T12:06:40.687Z,101254.41
2023-06-14T12:09:14.946Z,101243.75
2023-06-14T12:11:43.487Z,101249.44
2023-06-14T12:14:12.388Z,101238.38
2023-06-14T12:16:42.753Z,101240.22
2023-06-14T12:19:12.759Z,101234.66
2023-06-14T12:21:41.919Z,101227.09
2023-06-14T12:24:14.428Z,101216.66
2023-06-14T12:26:43.881Z,101224.78
2023-06-14T12:29:13.739Z,101216.31
2023-06-14T12:31:43.213Z,101212.00
2023-06-14T12:34:11.782Z,101209.22
2023-06-14T12:36:45.274Z,101215.84
2023-06-14T12:39:15.429Z,101203.13
2023-06-14T12:41:43.930Z,101208.09
2023-06-14T12:44:12.723Z,101198.88
2023-06-14T12:46:42.893Z,101205.34
2023-06-14T12:49:12.095Z,101202.91
2023-06-14T12:51:41.596Z,101208.03
2023-06-14T12:54:10.317Z,101206.13
2023-06-14T12:56:40.184Z,101201.84
2023-06-14T12:59:08.897Z,101197.63
2023-06-14T13:01:37.160Z,101201.34
2023-06-14T13:04:05.824Z,101200.84
2023-06-14T13:06:34.180Z,101185.50
2023-06-14T13:09:03.096Z,101192.88
2023-06-14T13:11:31.671Z,101182.59
2023-06-14T13:14:05.948Z,101170.59
2023-06-14T13:16:42.278Z,101177.53
2023-06-14T13:19:10.604Z,101176.25
2023-06-14T13:21:39.086Z,101166.13
2023-06-14T13:24:08.036Z,101151.84
2023-06-14T13:26:36.491Z,101151.44
2023-06-14T13:29:06.148Z,101127.06
2023-06-14T13:31:34.730Z,101138.63
2023-06-14T13:34:02.992Z,101153.78
2023-06-14T13:36:31.428Z,101159.34
2023-06-14T13:38:59.985Z,101159.69
2023-06-14T13:41:32.525Z,101147.47
2023-06-14T13:44:00.771Z,101144.94
2023-06-14T13:46:30.362Z,101135.72
2023-06-14T13:48:59.069Z,101136.69
2023-06-14T13:51:27.705Z,101143.28
2023-06-14T13:53:56.666Z,101152.59
2023-06-14T13:56:25.415Z,101152.94
2023-06-14T13:58:53.852Z,101152.91
2023-06-14T14:01:22.258Z,101167.22
2023-06-14T14:03:51.867Z,101160.53
2023-06-14T14:06:20.221Z,101159.06
2023-06-14T14:08:48.483Z,101153.44
2023-06-14T14:11:17.421Z,101149.03
2023-06-14T14:13:45.915Z,101144.53
2023-06-14T14:16:14.806Z,101142.38
2023-06-14T14:18:43.340Z,101142.63
2023-06-14T14:21:13.000Z,101133.69
2023-06-14T14:23:42.170Z,101139.13
2023-06-14T14:26:10.761Z,101140.72
2023-06-14T14:28:38.978Z,101133.66
2023-06-14T14:31:07.238Z,101140.22
2023-06-14T14:33:36.120Z,101141.56
2023-06-14T14:36:05.624Z,101138.06
2023-06-14T14:38:35.192Z,101140.53
2023-06-14T14:41:03.450Z,101130.03
2023-06-14T14:43:33.013Z,101136.72
2023-06-14T14:46:01.312Z,101119.75
2023-06-14T14:48:29.558Z,101126.47
2023-06-14T14:50:57.842Z,101114.84
2023-06-14T14:53:26.090Z,101116.47
2023-06-14T14:55:56.035Z,101115.59
2023-06-14T14:58:24.638Z,101112.06
2023-06-14T15:00:53.151Z,101117.22
2023-06-14T15:03:21.578Z,101124.38
2023-06-14T15:05:49.900Z,101123.91
2023-06-14T15:08:18.149Z,101112.59
2023-06-14T15:10:46.494Z,101121.84
2023-06-14T15:13:16.329Z,101114.13
2023-06-14T15:15:44.712Z,101124.06
2023-06-14T15:18:12.928Z,101122.09
2023-06-14T15:20:42.748Z,101112.56
2023-06-14T15:23:11.161Z,101113.69
2023-06-14T15:25:39.707Z,101116.47
2023-06-14T15:28:07.986Z,101103.38
2023-06-14T15:30:37.619Z,101114.00
2023-06-14T15:33:06.015Z,101104.06
2023-06-14T15:35:34.338Z,101109.66
2023-06-14T15:38:02.561Z,101117.16
2023-06-14T15:40:30.911Z,101120.56
2023-06-14T15:42:59.177Z,101106.13
2023-06-14T15:45:27.415Z,101104.84
2023-06-14T15:47:57.081Z,101112.56
2023-06-14T15:50:25.712Z,101109.03
2023-06-14T15:52:53.965Z,101107.03
2023-06-14T15:55:22.334Z,101119.75
2023-06-14T15:57:50.556Z,101123.03
2023-06-14T16:00:19.756Z,101120.44
2023-06-14T16:02:48.108Z,101112.63
2023-06-14T16:05:18.102Z,101106.47
2023-06-14T16:07:46.416Z,101112.75
2023-06-14T16:10:14.799Z,101096.09
2023-06-14T16:12:43.282Z,101085.50
2023-06-14T16:15:12.023Z,101073.91
2023-06-14T16:17:40.391Z,101072.94
2023-06-14T16:20:10.435Z,101084.63
2023-06-14T16:22:40.130Z,101085.81
2023-06-14T16:25:09.046Z,101084.78
2023-06-14T16:27:37.544Z,101098.16
2023-06-14T16:30:06.994Z,101115.59
2023-06-14T16:32:35.667Z,101131.13
2023-06-14T16:35:04.472Z,101129.75
2023-06-14T16:37:32.782Z,101135.53
2023-06-14T16:40:02.346Z,101130.66
2023-06-14T16:42:30.665Z,101134.72
2023-06-14T16:45:01.557Z,101145.34
2023-06-14T16:47:29.851Z,101144.00
2023-06-14T16:49:58.118Z,101127.63
2023-06-14T16:52:26.357Z,101143.56
2023-06-14T16:54:54.608Z,101146.94
2023-06-14T16:57:24.205Z,101146.50
2023-06-14T16:59:52.484Z,101144.91
2023-06-14T17:02:20.911Z,101147.56
2023-06-14T17:04:49.225Z,101141.22
2023-06-14T17:07:17.550Z,101145.63
2023-06-14T17:09:46.076Z,101144.63
2023-06-14T17:14:43.664Z,101146.97
2023-06-14T17:17:12.006Z,101155.22
2023-06-14T17:19:40.237Z,101153.78
2023-06-14T17:22:08.611Z,101160.41
2023-06-14T17:24:36.896Z,101150.19
2023-06-14T17:27:05.750Z,101168.06
2023-06-14T17:29:34.251Z,101164.28
2023-06-14T17:32:03.983Z,101164.38
2023-06-14T17:34:32.533Z,101173.34
2023-06-14T17:37:00.832Z,101170.81
2023-06-14T17:39:29.044Z,101173.81
2023-06-14T17:41:57.229Z,101176.22
2023-06-14T17:44:25.460Z,101174.50
2023-06-14T17:46:53.714Z,101179.75
2023-06-14T17:49:27.020Z,101170.88
2023-06-14T17:51:55.236Z,101174.03
2023-06-14T17:54:23.535Z,101173.34
2023-06-14T17:56:51.813Z,101179.44
2023-06-14T17:59:20.767Z,101178.78
2023-06-14T18:01:49.029Z,101178.22
2023-06-14T18:04:17.485Z,101184.53
2023-06-14T18:06:47.119Z,101186.81
2023-06-14T18:09:15.996Z,101192.34
2023-06-14T18:11:44.288Z,101192.75
2023-06-14T18:14:12.482Z,101186.59
2023-06-14T18:16:41.802Z,101184.69
2023-06-14T18:19:10.139Z,101188.22
2023-06-14T18:21:38.388Z,101185.50
2023-06-14T18:24:08.435Z,101196.16
2023-06-14T18:26:37.462Z,101189.22
2023-06-14T18:29:05.787Z,101187.25
2023-06-14T18:31:34.589Z,101194.19
2023-06-14T18:34:02.926Z,101186.69
2023-06-14T18:36:31.610Z,101197.47
2023-06-14T18:38:59.976Z,101193.94
2023-06-14T18:41:29.577Z,101201.13
2023-06-14T18:43:57.825Z,101195.47
2023-06-14T18:46:27.249Z,101196.47
2023-06-14T18:48:55.542Z,101185.84
2023-06-14T18:51:23.901Z,101189.94
2023-06-14T18:53:52.164Z,101191.66
2023-06-14T18:56:20.389Z,101194.75
2023-06-14T18:58:49.947Z,101186.66
2023-06-14T19:01:18.352Z,101184.38
2023-06-14T19:03:46.799Z,101195.59
2023-06-14T19:06:15.182Z,101189.50
2023-06-14T19:08:43.723Z,101195.97
2023-06-14T19:11:11.988Z,101190.16
2023-06-14T19:13:41.623Z,101188.19
2023-06-14T19:16:12.783Z,101195.97
2023-06-14T19:18:41.066Z,101192.88
2023-06-14T19:21:09.399Z,101186.59
2023-06-14T19:23:39.602Z,101195.19
2023-06-14T19:26:07.875Z,101196.63
2023-06-14T19:28:37.435Z,101193.38
2023-06-14T19:31:05.986Z,101200.16
2023-06-14T19:33:35.849Z,101200.03
2023-06-14T19:36:04.547Z,101202.13
2023-06-14T19:38:33.556Z,101190.25
2023-06-14T19:41:01.904Z,101199.16
2023-06-14T19:43:30.512Z,101203.81
2023-06-14T19:45:58.811Z,101201.75
2023-06-14T19:48:27.063Z,101207.00
2023-06-14T19:50:56.823Z,101202.63
2023-06-14T19:53:25.135Z,101200.59
2023-06-14T19:55:53.416Z,101200.06
2023-06-14T19:58:22.191Z,101216.16
2023-06-14T20:00:50.787Z,101207.59
2023-06-14T20:03:19.130Z,101205.94
2023-06-14T20:05:47.789Z,101211.53
2023-06-14T20:08:21.886Z,101215.13
2023-06-14T20:10:50.113Z,101215.28
2023-06-14T20:13:18.361Z,101206.59
2023-06-14T20:15:46.826Z,101213.25
2023-06-14T20:18:15.227Z,101217.22
2023-06-14T20:20:44.916Z,101216.72
2023-06-14T20:23:13.305Z,101213.16
2023-06-14T20:25:42.938Z,101214.56
2023-06-14T20:28:11.246Z,101212.84
2023-06-14T20:30:39.671Z,101220.91
2023-06-14T20:33:07.977Z,101225.34
2023-06-14T20:35:36.586Z,101221.38
2023-06-14T20:38:04.810Z,101221.09
2023-06-14T20:40:33.067Z,101221.78
2023-06-14T20:43:04.812Z,101212.13
2023-06-14T20:45:34.107Z,101209.72
2023-06-14T20:48:02.578Z,101210.41
2023-06-14T20:50:31.107Z,101218.75
2023-06-14T20:52:59.320Z,101213.00
2023-06-14T20:55:29.246Z,101225.19
2023-06-14T20:57:59.154Z,101213.63
2023-06-14T21:00:28.802Z,101219.66
2023-06-14T21:02:58.059Z,101216.22
2023-06-14T21:05:27.585Z,101216.81
2023-06-14T21:07:57.167Z,101215.44
2023-06-14T21:10:26.692Z,101213.81
2023-06-14T21:12:55.909Z,101225.19
2023-06-14T21:15:25.972Z,101225.75
2023-06-14T21:17:55.803Z,101227.31
2023-06-14T21:20:24.699Z,101223.84
2023-06-14T21:22:52.905Z,101219.72
2023-06-14T21:25:21.489Z,101221.78
2023-06-14T21:27:49.919Z,101215.56
2023-06-14T21:30:18.430Z,101213.78
2023-06-14T21:32:48.862Z,101218.81
2023-06-14T21:35:20.399Z,101210.75
2023-06-14T21:37:48.880Z,101215.78
2023-06-14T21:40:19.115Z,101207.78
2023-06-14T21:42:47.560Z,101211.50
2023-06-14T21:45:16.355Z,101209.31
2023-06-14T21:47:44.625Z,101204.00
2023-06-14T21:50:12.997Z,101211.09
2023-06-14T21:52:42.589Z,101202.69
2023-06-14T21:55:11.018Z,101202.50
2023-06-14T21:57:39.314Z,101201.28
2023-06-14T22:00:11.001Z,101199.19
2023-06-14T22:02:39.391Z,101202.69
2023-06-14T22:05:08.041Z,101195.75
2023-06-14T22:07:36.348Z,101199.66
2023-06-14T22:10:07.031Z,101205.91
2023-06-14T22:12:36.148Z,101201.50
2023-06-14T22:15:06.113Z,101197.81
2023-06-14T22:17:34.383Z,101198.72
2023-06-14T22:20:06.706Z,101202.06
2023-06-14T22:22:38.758Z,101194.75
2023-06-14T22:25:09.407Z,101189.06
2023-06-14T22:27:47.756Z,101189.59
2023-06-14T22:30:16.881Z,101190.88
2023-06-14T22:32:46.343Z,101195.88
2023-06-14T22:35:14.735Z,101194.69
2023-06-14T22:37:43.624Z,101190.97
2023-06-14T22:40:15.502Z,101191.94
2023-06-14T22:42:49.753Z,101185.97
2023-06-14T22:45:23.823Z,101185.63
2023-06-14T22:47:53.786Z,101192.31
2023-06-14T22:50:22.089Z,101186.34
2023-06-14T22:52:51.457Z,101186.59
2023-06-14T22:55:21.120Z,101184.78
2023-06-14T22:57:49.946Z,101179.16
2023-06-14T23:00:18.495Z,101187.66
2023-06-14T23:02:47.537Z,101179.44
2023-06-14T23:05:18.869Z,101188.44
2023-06-14T23:07:47.610Z,101183.31
2023-06-14T23:10:18.522Z,101179.75
2023-06-14T23:12:49.503Z,101184.53
2023-06-14T23:15:18.407Z,101183.66
2023-06-14T23:17:51.127Z,101177.34
2023-06-14T23:20:20.048Z,101176.50
2023-06-14T23:22:48.501Z,101185.38
2023-06-14T23:25:17.092Z,101175.16
2023-06-14T23:27:46.787Z,101184.81
2023-06-14T23:30:16.831Z,101175.41
2023-06-14T23:32:48.479Z,101174.81
2023-06-14T23:35:18.844Z,101171.63
2023-06-14T23:37:48.371Z,101165.78
2023-06-14T23:40:17.066Z,101159.84
2023-06-14T23:42:45.347Z,101169.09
2023-06-14T23:45:13.974Z,101162.91
2023-06-14T23:47:43.686Z,101167.38
2023-06-14T23:50:13.621Z,101168.81
2023-06-14T23:52:44.403Z,101177.88
2023-06-14T23:55:20.788Z,101171.03
2023-06-14T23:57:50.489Z,101173.94
